sensor_id;sensor_type;location;lat;lon;timestamp;pressure;altitude;pressure_sealevel;temperature;humidity
71772;BME280;59606;52.138;5.424;2023-08-06T00:00:28;100554.97;;;15.41;100.00
71772;BME280;59606;52.138;5.424;2023-08-06T00:02:54;100556.63;;;15.42;100.00
71772;BME280;59606;52.138;5.424;2023-08-06T00:05:21;100557.59;;;15.41;100.00
71772;BME280;59606;52.138;5.424;2023-08-06T00:07:48;100552.47;;;15.39;100.00
71772;BME280;59606;52.138;5.424;2023-08-06T00:10:15;100556.84;;;15.39;100.00
71772;BME280;59606;52.138;5.424;2023-08-06T00:12:43;100550.09;;;15.36;100.00
71772;BME280;59606;52.138;5.424;2023-08-06T00:15:11;100557.09;;;15.36;100.00
71772;BME280;59606;52.138;5.424;2023-08-06T00:17:37;100554.75;;;15.32;100.00
71772;BME280;59606;52.138;5.424;2023-08-06T00:20:05;100552.94;;;15.33;100.00
71772;BME280;59606;52.138;5.424;2023-08-06T00:22:37;100546.88;;;15.32;100.00
71772;BME280;59606;52.138;5.424;2023-08-06T00:25:05;100547.81;;;15.31;100.00
71772;BME280;59606;52.138;5.424;2023-08-06T00:27:31;100550.44;;;15.31;100.00
71772;BME280;59606;52.138;5.424;2023-08-06T00:29:59;100549.50;;;15.32;100.00
71772;BME280;59606;52.138;5.424;2023-08-06T00:32:25;100544.34;;;15.31;100.00
71772;BME280;59606;52.138;5.424;2023-08-06T00:34:52;100546.16;;;15.30;100.00
71772;BME280;59606;52.138;5.424;2023-08-06T00:37:19;100541.88;;;15.29;100.00
71772;BME280;59606;52.138;5.424;2023-08-06T00:39:45;100547.94;;;15.30;100.00
71772;BME280;59606;52.138;5.424;2023-08-06T00:42:12;100546.25;;;15.29;100.00
71772;BME280;59606;52.138;5.424;2023-08-06T00:44:39;100544.34;;;15.31;100.00
71772;BME280;59606;52.138;5.424;2023-08-06T00:47:07;100544.50;;;15.29;100.00
71772;BME280;59606;52.138;5.424;2023-08-06T00:49:35;100539.25;;;15.29;100.00
71772;BME280;59606;52.138;5.424;2023-08-06T00:52:04;100547.22;;;15.28;100.00
71772;BME280;59606;52.138;5.424;2023-08-06T00:54:31;100544.72;;;15.26;100.00
71772;BME280;59606;52.138;5.424;2023-08-06T00:56:59;100542.22;;;15.25;100.00
71772;BME280;59606;52.138;5.424;2023-08-06T00:59:28;100544.00;;;15.24;100.00
71772;BME280;59606;52.138;5.424;2023-08-06T01:01:55;100549.97;;;15.26;100.00
71772;BME280;59606;52.138;5.424;2023-08-06T01:04:22;100540.56;;;15.24;100.00
71772;BME280;59606;52.138;5.424;2023-08-06T01:09:57;100541.50;;;15.23;100.00
71772;BME280;59606;52.138;5.424;2023-08-06T01:12:31;100538.88;;;15.23;100.00
71772;BME280;59606;52.138;5.424;2023-08-06T01:15:07;100536.25;;;15.23;100.00
71772;BME280;59606;52.138;5.424;2023-08-06T01:17:35;100534.56;;;15.22;100.00
71772;BME280;59606;52.138;5.424;2023-08-06T01:20:02;100543.28;;;15.22;100.00
71772;BME280;59606;52.138;5.424;2023-08-06T01:22:30;100535.41;;;15.22;100.00
71772;BME280;59606;52.138;5.424;2023-08-06T01:24:56;100538.03;;;15.22;100.00
71772;BME280;59606;52.138;5.424;2023-08-06T01:27:46;100536.38;;;15.21;100.00
71772;BME280;59606;52.138;5.424;2023-08-06T01:30:28;100537.19;;;15.22;100.00
71772;BME280;59606;52.138;5.424;2023-08-06T01:32:59;100539.22;;;15.18;100.00
71772;BME280;59606;52.138;5.424;2023-08-06T01:35:27;100533.88;;;15.20;100.00
71772;BME280;59606;52.138;5.424;2023-08-06T01:37:55;100534.13;;;15.17;100.00
71772;BME280;59606;52.138;5.424;2023-08-06T01:40:23;100545.44;;;15.17;100.00
71772;BME280;59606;52.138;5.424;2023-08-06T01:42:49;100537.56;;;15.17;100.00
71772;BME280;59606;52.138;5.424;2023-08-06T01:45:16;100536.75;;;15.17;100.00
71772;BME280;59606;52.138;5.424;2023-08-06T01:47:42;100537.56;;;15.17;100.00
71772;BME280;59606;52.138;5.424;2023-08-06T01:50:09;100537.56;;;15.17;100.00
71772;BME280;59606;52.138;5.424;2023-08-06T01:52:36;100543.66;;;15.18;100.00
71772;BME280;59606;52.138;5.424;2023-08-06T01:55:02;100545.44;;;15.17;100.00
71772;BME280;59606;52.138;5.424;2023-08-06T01:57:29;100542.00;;;15.17;100.00
71772;BME280;59606;52.138;5.424;2023-08-06T01:59:55;100541.28;;;15.15;100.00
71772;BME280;59606;52.138;5.424;2023-08-06T02:02:22;100547.34;;;15.15;100.00
71772;BME280;59606;52.138;5.424;2023-08-06T02:04:49;100548.31;;;15.14;100.00
71772;BME280;59606;52.138;5.424;2023-08-06T02:07:16;100547.59;;;15.12;100.00
71772;BME280;59606;52.138;5.424;2023-08-06T02:09:42;100543.19;;;15.13;100.00
71772;BME280;59606;52.138;5.424;2023-08-06T02:12:09;100543.31;;;15.11;100.00
71772;BME280;59606;52.138;5.424;2023-08-06T02:14:36;100541.50;;;15.12;100.00
71772;BME280;59606;52.138;5.424;2023-08-06T02:17:02;100543.31;;;15.11;100.00
71772;BME280;59606;52.138;5.424;2023-08-06T02:19:29;100545.09;;;15.11;100.00
71772;BME280;59606;52.138;5.424;2023-08-06T02:21:56;100540.91;;;15.08;100.00
71772;BME280;59606;52.138;5.424;2023-08-06T02:24:22;100543.66;;;15.06;100.00
71772;BME280;59606;52.138;5.424;2023-08-06T02:26:49;100536.72;;;15.05;100.00
71772;BME280;59606;52.138;5.424;2023-08-06T02:29:17;100541.97;;;15.05;100.00
71772;BME280;59606;52.138;5.424;2023-08-06T02:31:44;100542.84;;;15.06;100.00
71772;BME280;59606;52.138;5.424;2023-08-06T02:34:11;100540.31;;;15.04;100.00
71772;BME280;59606;52.138;5.424;2023-08-06T02:36:37;100537.59;;;15.06;100.00
71772;BME280;59606;52.138;5.424;2023-08-06T02:39:04;100542.13;;;15.04;100.00
71772;BME280;59606;52.138;5.424;2023-08-06T02:41:30;100540.47;;;15.03;100.00
71772;BME280;59606;52.138;5.424;2023-08-06T02:43:57;100533.53;;;15.02;100.00
71772;BME280;59606;52.138;5.424;2023-08-06T02:46:23;100537.84;;;15.03;100.00
71772;BME280;59606;52.138;5.424;2023-08-06T02:48:50;100532.59;;;15.03;100.00
71772;BME280;59606;52.138;5.424;2023-08-06T02:51:16;100530.78;;;15.03;100.00
71772;BME280;59606;52.138;5.424;2023-08-06T02:53:43;100527.44;;;15.01;100.00
71772;BME280;59606;52.138;5.424;2023-08-06T02:56:09;100532.59;;;15.03;100.00
71772;BME280;59606;52.138;5.424;2023-08-06T02:58:36;100532.69;;;15.01;100.00
71772;BME280;59606;52.138;5.424;2023-08-06T03:01:04;100533.53;;;15.02;100.00
71772;BME280;59606;52.138;5.424;2023-08-06T03:03:32;100520.41;;;15.02;100.00
71772;BME280;59606;52.138;5.424;2023-08-06T03:06:00;100521.25;;;15.02;100.00
71772;BME280;59606;52.138;5.424;2023-08-06T03:08:27;100519.47;;;15.03;100.00
71772;BME280;59606;52.138;5.424;2023-08-06T03:10:54;100516.00;;;15.02;100.00
71772;BME280;59606;52.138;5.424;2023-08-06T03:13:20;100514.22;;;15.03;100.00
71772;BME280;59606;52.138;5.424;2023-08-06T03:15:58;100522.91;;;15.03;100.00
71772;BME280;59606;52.138;5.424;2023-08-06T03:18:25;100516.84;;;15.03;100.00
71772;BME280;59606;52.138;5.424;2023-08-06T03:20:55;100515.06;;;15.03;100.00
71772;BME280;59606;52.138;5.424;2023-08-06T03:23:21;100521.97;;;15.04;100.00
71772;BME280;59606;52.138;5.424;2023-08-06T03:25:48;100521.13;;;15.04;100.00
71772;BME280;59606;52.138;5.424;2023-08-06T03:28:14;100519.47;;;15.03;100.00
71772;BME280;59606;52.138;5.424;2023-08-06T03:30:41;100517.78;;;15.02;100.00
71772;BME280;59606;52.138;5.424;2023-08-06T03:33:07;100522.19;;;15.01;100.00
71772;BME280;59606;52.138;5.424;2023-08-06T03:35:34;100523.25;;;14.99;100.00
71772;BME280;59606;52.138;5.424;2023-08-06T03:38:01;100518.97;;;14.98;100.00
71772;BME280;59606;52.138;5.424;2023-08-06T03:40:28;100519.94;;;14.97;100.00
71772;BME280;59606;52.138;5.424;2023-08-06T03:42:54;100522.56;;;14.97;100.00
71772;BME280;59606;52.138;5.424;2023-08-06T03:45:21;100520.03;;;14.95;100.00
71772;BME280;59606;52.138;5.424;2023-08-06T03:47:47;100521.75;;;14.96;100.00
71772;BME280;59606;52.138;5.424;2023-08-06T03:50:14;100524.22;;;14.98;100.00
71772;BME280;59606;52.138;5.424;2023-08-06T03:52:41;100523.41;;;14.97;100.00
71772;BME280;59606;52.138;5.424;2023-08-06T03:55:07;100525.28;;;14.95;100.00
71772;BME280;59606;52.138;5.424;2023-08-06T03:57:34;100520.19;;;14.94;100.00
71772;BME280;59606;52.138;5.424;2023-08-06T04:00:00;100529.00;;;14.93;100.00
71772;BME280;59606;52.138;5.424;2023-08-06T04:02:27;100529.00;;;14.93;100.00
71772;BME280;59606;52.138;5.424;2023-08-06T04:04:54;100529.94;;;14.92;100.00
71772;BME280;59606;52.138;5.424;2023-08-06T04:07:20;100529.00;;;14.93;100.00
71772;BME280;59606;52.138;5.424;2023-08-06T04:09:52;100522.09;;;14.92;100.00
71772;BME280;59606;52.138;5.424;2023-08-06T04:12:19;100523.03;;;14.91;100.00
71772;BME280;59606;52.138;5.424;2023-08-06T04:14:48;100520.56;;;14.89;100.00
71772;BME280;59606;52.138;5.424;2023-08-06T04:17:14;100531.75;;;14.91;100.00
71772;BME280;59606;52.138;5.424;2023-08-06T04:19:41;100528.16;;;14.92;100.00
71772;BME280;59606;52.138;5.424;2023-08-06T04:22:07;100532.47;;;14.93;100.00
71772;BME280;59606;52.138;5.424;2023-08-06T04:24:34;100529.13;;;14.91;100.00
71772;BME280;59606;52.138;5.424;2023-08-06T04:27:00;100523.03;;;14.91;100.00
71772;BME280;59606;52.138;5.424;2023-08-06T04:29:27;100529.25;;;14.90;100.00
71772;BME280;59606;52.138;5.424;2023-08-06T04:31:53;100529.84;;;14.93;100.00
71772;BME280;59606;52.138;5.424;2023-08-06T04:34:21;100534.13;;;14.94;100.00
71772;BME280;59606;52.138;5.424;2023-08-06T04:36:48;100535.09;;;14.93;100.00
71772;BME280;59606;52.138;5.424;2023-08-06T04:39:15;100540.34;;;14.93;100.00
71772;BME280;59606;52.138;5.424;2023-08-06T04:41:41;100541.16;;;14.94;100.00
71772;BME280;59606;52.138;5.424;2023-08-06T04:44:08;100539.50;;;14.93;100.00
71772;BME280;59606;52.138;5.424;2023-08-06T04:46:34;100545.44;;;14.95;100.00
71772;BME280;59606;52.138;5.424;2023-08-06T04:49:01;100546.41;;;14.94;100.00
71772;BME280;59606;52.138;5.424;2023-08-06T04:51:27;100547.97;;;14.96;100.00
71772;BME280;59606;52.138;5.424;2023-08-06T04:53:54;100548.56;;;15.00;100.00
71772;BME280;59606;52.138;5.424;2023-08-06T04:56:20;100550.81;;;15.04;100.00
71772;BME280;59606;52.138;5.424;2023-08-06T04:58:47;100547.22;;;15.05;100.00
71772;BME280;59606;52.138;5.424;2023-08-06T05:01:13;100548.78;;;15.08;100.00
71772;BME280;59606;52.138;5.424;2023-08-06T05:03:40;100550.59;;;15.07;100.00
71772;BME280;59606;52.138;5.424;2023-08-06T05:06:06;100550.34;;;15.11;100.00
71772;BME280;59606;52.138;5.424;2023-08-06T05:08:33;100556.31;;;15.13;100.00
71772;BME280;59606;52.138;5.424;2023-08-06T05:11:00;100561.56;;;15.13;100.00
71772;BME280;59606;52.138;5.424;2023-08-06T05:13:26;100556.09;;;15.16;100.00
71772;BME280;59606;52.138;5.424;2023-08-06T05:15:53;100565.03;;;15.13;100.00
71772;BME280;59606;52.138;5.424;2023-08-06T05:18:20;100570.13;;;15.15;100.00
71772;BME280;59606;52.138;5.424;2023-08-06T05:20:47;100573.81;;;15.12;100.00
71772;BME280;59606;52.138;5.424;2023-08-06T05:23:14;100576.44;;;15.12;100.00
71772;BME280;59606;52.138;5.424;2023-08-06T05:25:40;100580.03;;;15.11;100.00
71772;BME280;59606;52.138;5.424;2023-08-06T05:28:07;100585.53;;;15.08;100.00
71772;BME280;59606;52.138;5.424;2023-08-06T05:30:33;100582.91;;;15.08;100.00
71772;BME280;59606;52.138;5.424;2023-08-06T05:33:00;100584.59;;;15.09;100.00
71772;BME280;59606;52.138;5.424;2023-08-06T05:35:26;100588.03;;;15.09;100.00
71772;BME280;59606;52.138;5.424;2023-08-06T05:37:53;100579.34;;;15.09;100.00
71772;BME280;59606;52.138;5.424;2023-08-06T05:40:19;100589.84;;;15.09;100.00
71772;BME280;59606;52.138;5.424;2023-08-06T05:42:46;100592.47;;;15.09;100.00
71772;BME280;59606;52.138;5.424;2023-08-06T05:45:12;100596.75;;;15.10;100.00
71772;BME280;59606;52.138;5.424;2023-08-06T05:47:39;100596.75;;;15.10;100.00
71772;BME280;59606;52.138;5.424;2023-08-06T05:50:06;100595.78;;;15.11;100.00
71772;BME280;59606;52.138;5.424;2023-08-06T05:52:33;100602.81;;;15.11;100.00
71772;BME280;59606;52.138;5.424;2023-08-06T05:55:00;100611.41;;;15.13;100.00
71772;BME280;59606;52.138;5.424;2023-08-06T05:57:26;100609.63;;;15.13;100.00
71772;BME280;59606;52.138;5.424;2023-08-06T05:59:52;100614.75;;;15.15;100.00
71772;BME280;59606;52.138;5.424;2023-08-06T06:02:19;100606.75;;;15.16;100.00
71772;BME280;59606;52.138;5.424;2023-08-06T06:04:45;100616.44;;;15.16;100.00
71772;BME280;59606;52.138;5.424;2023-08-06T06:07:12;100618.94;;;15.17;100.00
71772;BME280;59606;52.138;5.424;2023-08-06T06:09:38;100618.78;;;15.19;100.00
71772;BME280;59606;52.138;5.424;2023-08-06T06:12:06;100622.28;;;15.19;100.00
71772;BME280;59606;52.138;5.424;2023-08-06T06:14:33;100623.09;;;15.20;100.00
71772;BME280;59606;52.138;5.424;2023-08-06T06:16:59;100623.81;;;15.22;100.00
71772;BME280;59606;52.138;5.424;2023-08-06T06:19:28;100621.91;;;15.24;100.00
71772;BME280;59606;52.138;5.424;2023-08-06T06:21:55;100628.13;;;15.23;100.00
71772;BME280;59606;52.138;5.424;2023-08-06T06:24:24;100635.75;;;15.26;100.00
71772;BME280;59606;52.138;5.424;2023-08-06T06:26:50;100638.13;;;15.29;100.00
71772;BME280;59606;52.138;5.424;2023-08-06T06:29:17;100641.59;;;15.29;100.00
71772;BME280;59606;52.138;5.424;2023-08-06T06:31:43;100637.06;;;15.31;100.00
71772;BME280;59606;52.138;5.424;2023-08-06T06:34:10;100640.41;;;15.33;100.00
71772;BME280;59606;52.138;5.424;2023-08-06T06:36:36;100646.34;;;15.36;100.00
71772;BME280;59606;52.138;5.424;2023-08-06T06:39:03;100648.28;;;15.33;100.00
71772;BME280;59606;52.138;5.424;2023-08-06T06:41:29;100645.75;;;15.32;100.00
71772;BME280;59606;52.138;5.424;2023-08-06T06:43:58;100659.75;;;15.32;100.00
71772;BME280;59606;52.138;5.424;2023-08-06T06:46:25;100656.16;;;15.33;100.00
71772;BME280;59606;52.138;5.424;2023-08-06T06:48:52;100657.22;;;15.31;100.00
71772;BME280;59606;52.138;5.424;2023-08-06T06:51:18;100655.56;;;15.30;100.00
71772;BME280;59606;52.138;5.424;2023-08-06T06:53:45;100657.44;;;15.28;100.00
71772;BME280;59606;52.138;5.424;2023-08-06T06:56:11;100655.66;;;15.28;100.00
71772;BME280;59606;52.138;5.424;2023-08-06T06:58:38;100658.28;;;15.28;100.00
71772;BME280;59606;52.138;5.424;2023-08-06T07:01:05;100657.44;;;15.28;100.00
71772;BME280;59606;52.138;5.424;2023-08-06T07:03:32;100659.38;;;15.26;100.00
71772;BME280;59606;52.138;5.424;2023-08-06T07:05:58;100658.41;;;15.27;100.00
71772;BME280;59606;52.138;5.424;2023-08-06T07:08:25;100659.13;;;15.29;100.00
71772;BME280;59606;52.138;5.424;2023-08-06T07:11:00;100658.03;;;15.31;100.00
71772;BME280;59606;52.138;5.424;2023-08-06T07:13:27;100654.34;;;15.34;100.00
71772;BME280;59606;52.138;5.424;2023-08-06T07:15:54;100656.75;;;15.37;100.00
71772;BME280;59606;52.138;5.424;2023-08-06T07:18:22;100656.50;;;15.40;100.00
71772;BME280;59606;52.138;5.424;2023-08-06T07:20:52;100661.75;;;15.40;100.00
71772;BME280;59606;52.138;5.424;2023-08-06T07:23:20;100666.03;;;15.41;100.00
71772;BME280;59606;52.138;5.424;2023-08-06T07:25:47;100666.63;;;15.45;100.00
71772;BME280;59606;52.138;5.424;2023-08-06T07:28:15;100669.84;;;15.48;100.00
71772;BME280;59606;52.138;5.424;2023-08-06T07:30:43;100674.88;;;15.51;100.00
71772;BME280;59606;52.138;5.424;2023-08-06T07:33:10;100672.97;;;15.53;100.00
71772;BME280;59606;52.138;5.424;2023-08-06T07:35:37;100674.53;;;15.56;100.00
71772;BME280;59606;52.138;5.424;2023-08-06T07:38:03;100668.19;;;15.59;100.00
71772;BME280;59606;52.138;5.424;2023-08-06T07:40:30;100676.53;;;15.64;100.00
71772;BME280;59606;52.138;5.424;2023-08-06T07:42:57;100678.84;;;15.68;100.00
71772;BME280;59606;52.138;5.424;2023-08-06T07:45:24;100676.94;;;15.70;100.00
71772;BME280;59606;52.138;5.424;2023-08-06T07:47:50;100685.28;;;15.75;100.00
71772;BME280;59606;52.138;5.424;2023-08-06T07:50:18;100681.72;;;15.76;100.00
71772;BME280;59606;52.138;5.424;2023-08-06T07:52:44;100677.53;;;15.74;100.00
71772;BME280;59606;52.138;5.424;2023-08-06T07:55:11;100675.88;;;15.73;100.00
71772;BME280;59606;52.138;5.424;2023-08-06T07:57:37;100681.22;;;15.71;100.00
71772;BME280;59606;52.138;5.424;2023-08-06T08:00:05;100684.09;;;15.68;100.00
71772;BME280;59606;52.138;5.424;2023-08-06T08:02:31;100686.91;;;15.65;100.00
71772;BME280;59606;52.138;5.424;2023-08-06T08:04:58;100678.13;;;15.66;100.00
71772;BME280;59606;52.138;5.424;2023-08-06T08:07:24;100680.84;;;15.65;100.00
71772;BME280;59606;52.138;5.424;2023-08-06T08:09:51;100686.09;;;15.65;100.00
71772;BME280;59606;52.138;5.424;2023-08-06T08:12:18;100678.44;;;15.62;100.00
71772;BME280;59606;52.138;5.424;2023-08-06T08:14:44;100688.03;;;15.63;100.00
71772;BME280;59606;52.138;5.424;2023-08-06T08:17:11;100693.97;;;15.65;100.00
71772;BME280;59606;52.138;5.424;2023-08-06T08:19:39;100687.16;;;15.62;100.00
71772;BME280;59606;52.138;5.424;2023-08-06T08:22:06;100693.28;;;15.63;100.00
71772;BME280;59606;52.138;5.424;2023-08-06T08:24:33;100698.53;;;15.63;100.00
71772;BME280;59606;52.138;5.424;2023-08-06T08:26:59;100693.16;;;15.53;100.00
71772;BME280;59606;52.138;5.424;2023-08-06T08:29:26;100698.75;;;15.48;100.00
71772;BME280;59606;52.138;5.424;2023-08-06T08:31:54;100695.41;;;15.46;100.00
71772;BME280;59606;52.138;5.424;2023-08-06T08:34:21;100699.34;;;15.41;100.00
71772;BME280;59606;52.138;5.424;2023-08-06T08:36:48;100696.22;;;15.36;100.00
71772;BME280;59606;52.138;5.424;2023-08-06T08:39:16;100704.47;;;15.31;100.00
71772;BME280;59606;52.138;5.424;2023-08-06T08:41:44;100703.63;;;15.30;100.00
71772;BME280;59606;52.138;5.424;2023-08-06T08:44:12;100702.22;;;15.26;100.00
71772;BME280;59606;52.138;5.424;2023-08-06T08:46:43;100709.47;;;15.23;100.00
71772;BME280;59606;52.138;5.424;2023-08-06T08:49:10;100709.56;;;15.21;100.00
71772;BME280;59606;52.138;5.424;2023-08-06T08:51:37;100712.44;;;15.18;100.00
71772;BME280;59606;52.138;5.424;2023-08-06T08:54:04;100715.19;;;15.17;100.00
71772;BME280;59606;52.138;5.424;2023-08-06T08:56:31;100714.97;;;15.20;100.00
71772;BME280;59606;52.138;5.424;2023-08-06T08:58:58;100714.34;;;15.16;100.00
71772;BME280;59606;52.138;5.424;2023-08-06T09:01:26;100723.16;;;15.15;100.00
71772;BME280;59606;52.138;5.424;2023-08-06T09:03:57;100728.78;;;15.11;100.00
71772;BME280;59606;52.138;5.424;2023-08-06T09:06:26;100735.06;;;15.08;100.00
71772;BME280;59606;52.138;5.424;2023-08-06T09:09:01;100729.13;;;15.06;100.00
71772;BME280;59606;52.138;5.424;2023-08-06T09:11:30;100726.38;;;15.07;100.00
71772;BME280;59606;52.138;5.424;2023-08-06T09:14:06;100734.25;;;15.07;100.00
71772;BME280;59606;52.138;5.424;2023-08-06T09:16:36;100737.00;;;15.06;100.00
71772;BME280;59606;52.138;5.424;2023-08-06T09:19:21;100739.84;;;15.03;100.00
71772;BME280;59606;52.138;5.424;2023-08-06T09:21:51;100741.38;;;14.94;100.00
71772;BME280;59606;52.138;5.424;2023-08-06T09:24:18;100751.84;;;14.94;100.00
71772;BME280;59606;52.138;5.424;2023-08-06T09:26:45;100751.25;;;14.91;100.00
71772;BME280;59606;52.138;5.424;2023-08-06T09:29:12;100752.22;;;14.90;100.00
71772;BME280;59606;52.138;5.424;2023-08-06T09:34:19;100762.56;;;14.91;100.00
71772;BME280;59606;52.138;5.424;2023-08-06T09:36:48;100759.13;;;14.91;100.00
71772;BME280;59606;52.138;5.424;2023-08-06T09:39:19;100766.88;;;14.92;100.00
71772;BME280;59606;52.138;5.424;2023-08-06T09:41:46;100772.84;;;14.94;100.00
71772;BME280;59606;52.138;5.424;2023-08-06T09:44:20;100770.22;;;14.94;100.00
71772;BME280;59606;52.138;5.424;2023-08-06T09:47:17;100765.94;;;14.93;100.00
71772;BME280;59606;52.138;5.424;2023-08-06T09:49:44;100770.00;;;14.97;100.00
71772;BME280;59606;52.138;5.424;2023-08-06T09:52:13;100775.13;;;14.99;100.00
71772;BME280;59606;52.138;5.424;2023-08-06T09:54:40;100781.31;;;14.98;100.00
71772;BME280;59606;52.138;5.424;2023-08-06T09:57:08;100777.88;;;14.97;100.00
71772;BME280;59606;52.138;5.424;2023-08-06T09:59:37;100775.97;;;14.99;100.00
71772;BME280;59606;52.138;5.424;2023-08-06T10:02:12;100780.03;;;15.03;100.00
71772;BME280;59606;52.138;5.424;2023-08-06T10:04:39;100788.88;;;15.02;100.00
71772;BME280;59606;52.138;5.424;2023-08-06T10:07:07;100796.63;;;15.04;100.00
71772;BME280;59606;52.138;5.424;2023-08-06T10:09:35;100800.06;;;15.04;100.00
71772;BME280;59606;52.138;5.424;2023-08-06T10:12:02;100800.06;;;15.04;100.00
71772;BME280;59606;52.138;5.424;2023-08-06T10:14:32;100799.09;;;15.05;100.00
71772;BME280;59606;52.138;5.424;2023-08-06T10:17:00;100803.53;;;15.05;100.00
71772;BME280;59606;52.138;5.424;2023-08-06T10:19:27;100809.59;;;15.05;100.00
71772;BME280;59606;52.138;5.424;2023-08-06T10:22:15;100806.75;;;15.08;100.00
71772;BME280;59606;52.138;5.424;2023-08-06T10:24:47;100803.19;;;15.09;100.00
71772;BME280;59606;52.138;5.424;2023-08-06T10:27:14;100810.84;;;15.13;100.00
71772;BME280;59606;52.138;5.424;2023-08-06T10:29:45;100806.69;;;15.21;100.00
71772;BME280;59606;52.138;5.424;2023-08-06T10:32:12;100808.25;;;15.24;100.00
71772;BME280;59606;52.138;5.424;2023-08-06T10:35:01;100808.13;;;15.25;100.00
71772;BME280;59606;52.138;5.424;2023-08-06T10:37:36;100810.66;;;15.27;100.00
71772;BME280;59606;52.138;5.424;2023-08-06T10:40:06;100807.56;;;15.33;100.00
71772;BME280;59606;52.138;5.424;2023-08-06T10:42:33;100809.09;;;15.36;100.00
71772;BME280;59606;52.138;5.424;2023-08-06T10:45:17;100805.19;;;15.41;100.00
71772;BME280;59606;52.138;5.424;2023-08-06T10:47:45;100812.97;;;15.43;100.00
71772;BME280;59606;52.138;5.424;2023-08-06T10:50:13;100810.44;;;15.41;100.00
71772;BME280;59606;52.138;5.424;2023-08-06T10:52:46;100807.09;;;15.39;100.00
71772;BME280;59606;52.138;5.424;2023-08-06T10:55:14;100814.25;;;15.37;100.00
71772;BME280;59606;52.138;5.424;2023-08-06T10:57:40;100818.78;;;15.35;100.00
71772;BME280;59606;52.138;5.424;2023-08-06T11:00:07;100819.13;;;15.30;100.00
71772;BME280;59606;52.138;5.424;2023-08-06T11:02:42;100821.75;;;15.30;100.00
71772;BME280;59606;52.138;5.424;2023-08-06T11:05:10;100821.84;;;15.29;100.00
71772;BME280;59606;52.138;5.424;2023-08-06T11:07:39;100822.34;;;15.34;100.00
71772;BME280;59606;52.138;5.424;2023-08-06T11:10:10;100828.22;;;15.38;100.00
71772;BME280;59606;52.138;5.424;2023-08-06T11:12:38;100830.84;;;15.38;100.00
71772;BME280;59606;52.138;5.424;2023-08-06T11:15:05;100827.38;;;15.37;100.00
71772;BME280;59606;52.138;5.424;2023-08-06T11:17:34;100837.28;;;15.33;100.00
71772;BME280;59606;52.138;5.424;2023-08-06T11:20:04;100849.06;;;15.28;100.00
71772;BME280;59606;52.138;5.424;2023-08-06T11:22:31;100845.59;;;15.27;100.00
71772;BME280;59606;52.138;5.424;2023-08-06T11:24:58;100845.59;;;15.27;100.00
71772;BME280;59606;52.138;5.424;2023-08-06T11:27:26;100839.75;;;15.24;100.00
71772;BME280;59606;52.138;5.424;2023-08-06T11:29:53;100850.47;;;15.21;100.00
71772;BME280;59606;52.138;5.424;2023-08-06T11:32:20;100849.34;;;15.12;100.00
71772;BME280;59606;52.138;5.424;2023-08-06T11:34:46;100856.59;;;15.08;100.00
71772;BME280;59606;52.138;5.424;2023-08-06T11:37:13;100859.38;;;15.07;100.00
71772;BME280;59606;52.138;5.424;2023-08-06T11:39:45;100865.78;;;15.03;100.00
71772;BME280;59606;52.138;5.424;2023-08-06T11:42:12;100854.56;;;15.01;100.00
71772;BME280;59606;52.138;5.424;2023-08-06T11:44:40;100861.94;;;14.96;100.00
71772;BME280;59606;52.138;5.424;2023-08-06T11:47:16;100869.91;;;14.94;100.00
71772;BME280;59606;52.138;5.424;2023-08-06T11:49:46;100857.34;;;14.87;100.00
71772;BME280;59606;52.138;5.424;2023-08-06T11:52:18;100858.84;;;14.78;100.00
71772;BME280;59606;52.138;5.424;2023-08-06T11:55:07;100868.00;;;14.72;100.00
71772;BME280;59606;52.138;5.424;2023-08-06T11:57:38;100857.97;;;14.66;100.00
71772;BME280;59606;52.138;5.424;2023-08-06T12:00:08;100860.69;;;14.65;100.00
71772;BME280;59606;52.138;5.424;2023-08-06T12:02:35;100862.59;;;14.63;100.00
71772;BME280;59606;52.138;5.424;2023-08-06T12:05:14;100856.25;;;14.65;100.00
71772;BME280;59606;52.138;5.424;2023-08-06T12:07:42;100858.78;;;14.67;100.00
71772;BME280;59606;52.138;5.424;2023-08-06T12:10:10;100855.44;;;14.65;100.00
71772;BME280;59606;52.138;5.424;2023-08-06T12:12:37;100862.38;;;14.66;100.00
71772;BME280;59606;52.138;5.424;2023-08-06T12:15:06;100875.97;;;14.71;100.00
71772;BME280;59606;52.138;5.424;2023-08-06T12:17:33;100873.47;;;14.69;100.00
71772;BME280;59606;52.138;5.424;2023-08-06T12:19:59;100875.88;;;14.72;100.00
71772;BME280;59606;52.138;5.424;2023-08-06T12:22:26;100882.88;;;14.72;100.00
71772;BME280;59606;52.138;5.424;2023-08-06T12:24:52;100881.00;;;14.74;100.00
71772;BME280;59606;52.138;5.424;2023-08-06T12:27:19;100887.00;;;14.76;100.00
71772;BME280;59606;52.138;5.424;2023-08-06T12:29:48;100889.47;;;14.77;100.00
71772;BME280;59606;52.138;5.424;2023-08-06T12:32:15;100886.66;;;14.80;100.00
71772;BME280;59606;52.138;5.424;2023-08-06T12:34:42;100895.34;;;14.81;100.00
71772;BME280;59606;52.138;5.424;2023-08-06T12:37:18;100896.19;;;14.81;100.00
71772;BME280;59606;52.138;5.424;2023-08-06T12:39:45;100893.25;;;14.86;100.00
71772;BME280;59606;52.138;5.424;2023-08-06T12:42:11;100902.66;;;14.89;100.00
71772;BME280;59606;52.138;5.424;2023-08-06T12:44:38;100905.91;;;14.92;100.00
71772;BME280;59606;52.138;5.424;2023-08-06T12:47:06;100905.91;;;14.92;100.00
71772;BME280;59606;52.138;5.424;2023-08-06T12:49:34;100909.25;;;14.94;100.00